createdAt,value
2019-02-11T00:01:21.264Z,6.30
2019-02-11T00:03:49.939Z,6.30
2019-02-11T00:06:18.669Z,6.20
2019-02-11T00:08:47.432Z,6.00
2019-02-11T00:11:16.117Z,6.00
2019-02-11T00:13:44.812Z,6.10
2019-02-11T00:16:13.534Z,6.10
2019-02-11T00:18:42.668Z,6.00
2019-02-11T00:21:11.335Z,6.00
2019-02-11T00:23:40.069Z,5.90
2019-02-11T00:26:08.740Z,5.90
2019-02-11T00:28:37.407Z,6.00
2019-02-11T00:31:06.124Z,6.00
2019-02-11T00:33:34.810Z,6.00
2019-02-11T00:36:03.467Z,5.90
2019-02-11T00:38:32.336Z,5.80
2019-02-11T00:41:01.083Z,5.80
2019-02-11T00:43:29.756Z,5.70
2019-02-11T00:45:58.499Z,5.80
2019-02-11T00:48:27.177Z,5.90
2019-02-11T00:50:55.879Z,5.80
2019-02-11T00:53:24.624Z,6.00
2019-02-11T00:55:53.281Z,6.10
2019-02-11T00:58:21.966Z,6.20
2019-02-11T01:00:50.752Z,6.20
2019-02-11T01:03:19.486Z,6.20
2019-02-11T01:05:48.167Z,6.20
2019-02-11T01:08:16.930Z,6.10
2019-02-11T01:10:45.601Z,6.00
2019-02-11T01:13:14.364Z,6.00
2019-02-11T01:15:43.079Z,6.00
2019-02-11T01:18:11.757Z,5.90
2019-02-11T01:20:40.423Z,6.00
2019-02-11T01:23:09.179Z,5.90
2019-02-11T01:25:37.941Z,5.90
2019-02-11T01:28:06.701Z,5.90
2019-02-11T01:30:35.622Z,5.90
2019-02-11T01:33:04.300Z,5.90
2019-02-11T01:35:32.986Z,5.90
2019-02-11T01:38:01.840Z,5.90
2019-02-11T01:40:30.589Z,5.80
2019-02-11T01:42:59.267Z,5.70
2019-02-11T01:45:28.054Z,5.70
2019-02-11T01:47:56.723Z,5.90
2019-02-11T01:50:25.394Z,6.00
2019-02-11T01:52:54.141Z,6.00
2019-02-11T01:55:22.853Z,5.90
2019-02-11T01:57:51.523Z,5.80
2019-02-11T02:00:20.444Z,5.80
2019-02-11T02:02:49.078Z,5.70
2019-02-11T02:05:17.779Z,5.70
2019-02-11T02:07:46.502Z,5.60
2019-02-11T02:10:15.392Z,5.60
2019-02-11T02:12:44.077Z,5.70
2019-02-11T02:15:14.303Z,5.70
2019-02-11T02:17:42.948Z,5.70
2019-02-11T02:20:17.453Z,5.60
2019-02-11T02:22:46.132Z,5.70
2019-02-11T02:25:14.828Z,5.60
2019-02-11T02:27:43.668Z,5.60
2019-02-11T02:30:15.506Z,5.70
2019-02-11T02:32:44.167Z,5.70
2019-02-11T02:35:12.880Z,5.80
2019-02-11T02:37:41.577Z,5.80
2019-02-11T02:40:10.630Z,5.80
2019-02-11T02:42:39.450Z,5.80
2019-02-11T02:45:09.319Z,5.70
2019-02-11T02:47:38.005Z,5.70
2019-02-11T02:50:08.955Z,5.70
2019-02-11T02:52:37.641Z,5.80
2019-02-11T02:55:07.849Z,5.90
2019-02-11T02:57:36.594Z,5.80
2019-02-11T03:00:10.695Z,5.70
2019-02-11T03:02:39.388Z,5.80
2019-02-11T03:05:09.241Z,5.80
2019-02-11T03:07:37.920Z,5.80
2019-02-11T03:10:08.989Z,5.80
2019-02-11T03:12:37.719Z,5.90
2019-02-11T03:15:11.157Z,5.90
2019-02-11T03:17:39.808Z,6.00
2019-02-11T03:20:09.367Z,6.00
2019-02-11T03:22:38.055Z,6.10
2019-02-11T03:25:08.195Z,6.20
2019-02-11T03:27:36.928Z,6.30
2019-02-11T03:30:08.727Z,6.30
2019-02-11T03:32:37.437Z,6.30
2019-02-11T03:35:06.248Z,6.20
2019-02-11T03:37:34.934Z,6.30
2019-02-11T03:40:04.586Z,6.20
2019-02-11T03:42:33.329Z,6.20
2019-02-11T03:45:02.017Z,6.20
2019-02-11T03:47:30.689Z,6.20
2019-02-11T03:49:59.427Z,6.20
2019-02-11T03:52:28.123Z,6.30
2019-02-11T03:54:56.849Z,6.30
2019-02-11T03:57:26.399Z,6.40
2019-02-11T03:59:55.187Z,6.50
2019-02-11T04:02:23.923Z,6.60
2019-02-11T04:04:52.651Z,6.70
2019-02-11T04:07:21.310Z,6.70
2019-02-11T04:09:50.005Z,6.70
2019-02-11T04:12:18.795Z,6.70
2019-02-11T04:14:47.475Z,6.70
2019-02-11T04:17:16.148Z,6.70
2019-02-11T04:19:44.918Z,6.80
2019-02-11T04:22:13.593Z,6.80
2019-02-11T04:24:42.391Z,6.80
2019-02-11T04:27:11.119Z,6.90
2019-02-11T04:29:39.774Z,6.90
2019-02-11T04:32:08.453Z,6.90
2019-02-11T04:34:37.163Z,7.00
2019-02-11T04:37:05.855Z,7.10
2019-02-11T04:39:34.537Z,7.20
2019-02-11T04:42:03.288Z,7.40
2019-02-11T04:44:34.012Z,7.50
2019-02-11T04:47:02.287Z,7.50
2019-02-11T04:49:31.119Z,7.80
2019-02-11T04:51:59.854Z,7.90
2019-02-11T04:54:28.471Z,8.10
2019-02-11T04:56:57.199Z,8.50
2019-02-11T04:59:26.718Z,9.10
2019-02-11T05:01:55.390Z,9.60
2019-02-11T05:04:24.105Z,10.20
2019-02-11T05:06:52.856Z,10.70
2019-02-11T05:09:21.568Z,11.00
2019-02-11T05:11:50.309Z,11.30
2019-02-11T05:14:19.031Z,11.50
2019-02-11T05:16:47.702Z,11.60
2019-02-11T05:19:16.396Z,11.80
2019-02-11T05:21:45.072Z,12.10
2019-02-11T05:24:13.754Z,12.20
2019-02-11T05:26:42.465Z,12.20
2019-02-11T05:29:11.130Z,12.30
2019-02-11T05:31:39.782Z,12.30
2019-02-11T05:34:08.531Z,12.40
2019-02-11T05:36:37.210Z,12.40
2019-02-11T05:39:06.380Z,12.40
2019-02-11T05:41:35.126Z,12.40
2019-02-11T05:44:05.829Z,12.50
2019-02-11T05:46:34.144Z,12.50
2019-02-11T05:49:02.894Z,12.50
2019-02-11T05:51:31.521Z,12.50
2019-02-11T05:54:00.195Z,12.50
2019-02-11T05:56:28.960Z,12.60
2019-02-11T05:58:57.646Z,12.70
2019-02-11T06:01:26.390Z,12.80
2019-02-11T06:03:55.126Z,12.90
2019-02-11T06:06:23.870Z,12.90
2019-02-11T06:08:52.562Z,12.90
2019-02-11T06:11:21.313Z,12.80
2019-02-11T06:13:50.024Z,12.80
2019-02-11T06:16:18.713Z,12.90
2019-02-11T06:18:47.484Z,12.80
2019-02-11T06:21:16.172Z,12.50
2019-02-11T06:23:44.827Z,12.60
2019-02-11T06:26:13.547Z,12.70
2019-02-11T06:28:42.620Z,12.50
2019-02-11T06:31:11.297Z,12.40
2019-02-11T06:33:39.985Z,12.20
2019-02-11T06:36:12.293Z,12.10
2019-02-11T06:38:39.078Z,12.10
2019-02-11T06:41:07.853Z,12.10
2019-02-11T06:43:36.539Z,12.20
2019-02-11T06:46:05.238Z,12.50
2019-02-11T06:48:33.954Z,12.60
2019-02-11T06:51:02.659Z,12.80
2019-02-11T06:53:31.357Z,12.90
2019-02-11T06:56:00.119Z,12.90
2019-02-11T06:58:28.811Z,13.00
2019-02-11T07:00:57.483Z,13.10
2019-02-11T07:03:26.272Z,13.10
2019-02-11T07:05:54.952Z,13.20
2019-02-11T07:08:23.608Z,13.20
2019-02-11T07:10:55.627Z,13.30
2019-02-11T07:13:22.764Z,13.40
2019-02-11T07:15:51.444Z,13.40
2019-02-11T07:18:20.153Z,13.50
2019-02-11T07:20:48.822Z,13.30
2019-02-11T07:23:17.496Z,13.30
2019-02-11T07:25:46.239Z,13.20
2019-02-11T07:28:14.937Z,13.30
2019-02-11T07:30:43.602Z,13.40
2019-02-11T07:33:12.316Z,13.40
2019-02-11T07:35:41.003Z,13.40
2019-02-11T07:38:09.697Z,13.20
2019-02-11T07:40:38.394Z,13.30
2019-02-11T07:43:08.739Z,13.30
2019-02-11T07:45:57.494Z,13.30
2019-02-11T07:48:26.156Z,13.30
2019-02-11T07:50:54.819Z,13.40
2019-02-11T07:53:23.538Z,13.40
2019-02-11T07:55:52.218Z,13.50
2019-02-11T07:58:20.908Z,13.50
2019-02-11T08:00:49.629Z,13.60
2019-02-11T08:03:18.305Z,13.70
2019-02-11T08:05:47.052Z,13.70
2019-02-11T08:08:15.810Z,13.60
2019-02-11T08:10:44.485Z,13.50
2019-02-11T08:13:13.176Z,13.50
2019-02-11T08:15:41.900Z,13.40
2019-02-11T08:18:10.587Z,13.40
2019-02-11T08:20:39.265Z,13.40
2019-02-11T08:23:12.939Z,13.50
2019-02-11T08:25:38.294Z,13.50
2019-02-11T08:28:06.962Z,13.50
2019-02-11T08:30:35.716Z,13.40
2019-02-11T08:33:04.397Z,13.50
2019-02-11T08:35:33.090Z,13.70
2019-02-11T08:38:01.962Z,13.60
2019-02-11T08:40:30.646Z,13.50
2019-02-11T08:42:59.357Z,13.40
2019-02-11T08:45:28.097Z,13.30
2019-02-11T08:47:56.749Z,13.40
2019-02-11T08:50:25.433Z,13.40
2019-02-11T08:52:54.178Z,13.50
2019-02-11T08:55:22.934Z,13.50
2019-02-11T08:57:51.655Z,13.50
2019-02-11T09:00:20.422Z,13.40
2019-02-11T09:02:49.162Z,13.30
2019-02-11T09:05:17.835Z,12.70
2019-02-11T09:07:47.387Z,12.20
2019-02-11T09:10:16.088Z,11.50
2019-02-11T09:12:44.858Z,10.90
2019-02-11T09:15:13.750Z,10.60
2019-02-11T09:17:42.490Z,10.50
2019-02-11T09:20:11.466Z,10.40
2019-02-11T09:22:40.193Z,10.30
2019-02-11T09:25:10.499Z,10.00
2019-02-11T09:27:39.192Z,9.50
2019-02-11T09:30:13.980Z,9.10
2019-02-11T09:32:42.658Z,8.80
2019-02-11T09:35:11.333Z,8.50
2019-02-11T09:37:40.076Z,8.30
2019-02-11T09:40:11.736Z,8.00
2019-02-11T09:42:40.509Z,7.80
2019-02-11T09:45:12.589Z,7.50
2019-02-11T09:47:41.282Z,7.30
2019-02-11T09:50:18.555Z,7.00
2019-02-11T09:52:47.248Z,6.90
2019-02-11T09:55:21.558Z,6.80
2019-02-11T09:57:50.296Z,6.70
2019-02-11T10:00:18.953Z,6.60
2019-02-11T10:02:47.664Z,6.50
2019-02-11T10:05:16.376Z,6.50
2019-02-11T10:07:45.043Z,6.50
2019-02-11T10:10:15.022Z,6.30
2019-02-11T10:12:43.807Z,6.10
2019-02-11T10:15:13.497Z,5.90
2019-02-11T10:17:42.301Z,5.70
2019-02-11T10:20:12.737Z,5.40
2019-02-11T10:22:41.619Z,5.20
2019-02-11T10:25:15.987Z,5.00
2019-02-11T10:27:44.652Z,5.00
2019-02-11T10:30:15.018Z,5.00
2019-02-11T10:32:43.877Z,5.00
2019-02-11T10:35:13.284Z,5.00
2019-02-11T10:37:41.922Z,4.90
2019-02-11T10:40:12.247Z,5.00
2019-02-11T10:42:40.911Z,5.00
2019-02-11T10:45:12.118Z,4.90
2019-02-11T10:47:41.827Z,4.80
2019-02-11T10:50:15.940Z,4.80
2019-02-11T10:52:44.771Z,5.00
2019-02-11T10:55:15.610Z,5.10
2019-02-11T10:57:44.314Z,5.00
2019-02-11T11:00:21.741Z,4.80
2019-02-11T11:02:50.401Z,4.70
2019-02-11T11:05:19.157Z,4.60
2019-02-11T11:07:48.485Z,4.60
2019-02-11T11:10:20.245Z,4.80
2019-02-11T11:12:48.957Z,4.90
2019-02-11T11:15:17.764Z,4.60
2019-02-11T11:17:46.425Z,4.50
2019-02-11T11:20:18.456Z,4.50
2019-02-11T11:22:47.317Z,4.50
2019-02-11T11:25:17.590Z,4.50
2019-02-11T11:27:46.241Z,4.50
2019-02-11T11:30:19.146Z,4.40
2019-02-11T11:32:47.902Z,4.30
2019-02-11T11:35:17.589Z,4.20
2019-02-11T11:37:46.390Z,4.20
2019-02-11T11:40:21.786Z,4.10
2019-02-11T11:42:50.489Z,4.10
2019-02-11T11:45:19.963Z,3.90
2019-02-11T11:47:48.621Z,3.80
2019-02-11T11:50:17.667Z,3.80
2019-02-11T11:52:46.335Z,3.80
2019-02-11T11:55:22.671Z,3.70
2019-02-11T11:57:51.341Z,3.80
2019-02-11T12:00:25.266Z,3.80
2019-02-11T12:03:04.122Z,3.80
2019-02-11T12:05:24.635Z,3.90
2019-02-11T12:07:54.432Z,3.90
2019-02-11T12:10:23.302Z,3.80
2019-02-11T12:12:51.972Z,3.80
2019-02-11T12:15:23.182Z,3.70
2019-02-11T12:17:52.123Z,3.60
2019-02-11T12:20:20.896Z,3.60
2019-02-11T12:22:49.597Z,3.50
2019-02-11T12:25:18.713Z,3.50
2019-02-11T12:27:47.472Z,3.50
2019-02-11T12:30:26.581Z,3.50
2019-02-11T12:32:56.296Z,3.50
2019-02-11T12:35:25.400Z,3.40
2019-02-11T12:37:54.121Z,3.20
2019-02-11T12:40:23.223Z,3.10
2019-02-11T12:42:53.465Z,2.90
2019-02-11T12:45:25.727Z,2.80
2019-02-11T12:47:54.450Z,2.80
2019-02-11T12:50:23.178Z,3.00
2019-02-11T12:52:51.932Z,3.30
2019-02-11T12:55:22.185Z,3.40
2019-02-11T12:57:50.855Z,3.50
2019-02-11T13:00:24.212Z,3.50
2019-02-11T13:02:52.915Z,3.40
2019-02-11T13:05:23.859Z,3.40
2019-02-11T13:07:52.212Z,3.50
2019-02-11T13:10:21.279Z,3.50
2019-02-11T13:12:50.421Z,3.50
2019-02-11T13:15:58.582Z,3.60
2019-02-11T13:17:50.406Z,3.60
2019-02-11T13:20:19.567Z,3.70
2019-02-11T13:22:48.661Z,3.80
2019-02-11T13:25:18.218Z,3.90
2019-02-11T13:27:47.170Z,3.70
2019-02-11T13:30:23.883Z,3.60
2019-02-11T13:32:52.579Z,3.50
2019-02-11T13:35:22.891Z,3.40
2019-02-11T13:37:54.972Z,3.40
2019-02-11T13:40:23.042Z,3.40
2019-02-11T13:42:52.379Z,3.20
2019-02-11T13:45:22.043Z,3.20
2019-02-11T13:47:56.368Z,3.00
2019-02-11T13:50:26.095Z,2.90
2019-02-11T13:52:55.225Z,2.90
2019-02-11T13:55:23.985Z,3.00
2019-02-11T13:57:54.068Z,3.10
2019-02-11T14:00:26.138Z,3.20
2019-02-11T14:02:59.043Z,3.10
2019-02-11T14:05:28.575Z,3.00
2019-02-11T14:07:58.379Z,2.80
2019-02-11T14:10:29.667Z,2.70
2019-02-11T14:13:04.070Z,2.70
2019-02-11T14:15:32.727Z,2.80
2019-02-11T14:18:13.475Z,2.80
2019-02-11T14:20:39.927Z,2.80
2019-02-11T14:23:11.677Z,3.00
2019-02-11T14:25:45.679Z,3.20
2019-02-11T14:28:11.538Z,3.20
2019-02-11T14:30:40.542Z,3.20
2019-02-11T14:33:09.257Z,3.20
2019-02-11T14:35:37.961Z,3.20
2019-02-11T14:38:06.671Z,2.90
2019-02-11T14:40:35.366Z,2.80
2019-02-11T14:43:04.067Z,2.90
2019-02-11T14:45:32.796Z,3.10
2019-02-11T14:48:03.044Z,3.30
2019-02-11T14:50:31.703Z,3.40
2019-02-11T14:53:00.427Z,3.50
2019-02-11T14:55:29.135Z,3.60
2019-02-11T14:57:57.861Z,3.70
2019-02-11T15:00:26.566Z,3.70
2019-02-11T15:02:55.304Z,3.40
2019-02-11T15:05:24.224Z,3.30
2019-02-11T15:07:52.904Z,3.10
2019-02-11T15:10:21.580Z,3.00
2019-02-11T15:12:50.235Z,3.00
2019-02-11T15:15:18.970Z,3.00
2019-02-11T15:17:47.656Z,2.80
2019-02-11T15:20:17.043Z,2.70
2019-02-11T15:22:46.547Z,3.00
2019-02-11T15:25:17.012Z,3.60
2019-02-11T15:27:45.689Z,3.90
2019-02-11T15:30:22.157Z,3.70
2019-02-11T15:32:51.182Z,3.30
2019-02-11T15:35:19.819Z,3.30
2019-02-11T15:37:48.544Z,3.20
2019-02-11T15:40:19.966Z,3.40
2019-02-11T15:42:48.640Z,3.40
2019-02-11T15:45:17.411Z,3.20
2019-02-11T15:47:46.057Z,2.90
2019-02-11T15:50:17.870Z,2.80
2019-02-11T15:52:46.669Z,2.70
2019-02-11T15:55:20.115Z,2.60
2019-02-11T15:57:48.756Z,2.60
2019-02-11T16:00:19.376Z,2.60
2019-02-11T16:02:48.046Z,2.70
2019-02-11T16:05:17.004Z,2.60
2019-02-11T16:07:45.892Z,2.60
2019-02-11T16:10:19.966Z,2.80
2019-02-11T16:12:48.721Z,3.00
2019-02-11T16:15:19.214Z,3.10
2019-02-11T16:17:48.064Z,3.00
2019-02-11T16:20:16.758Z,3.00
2019-02-11T16:22:45.495Z,2.80
2019-02-11T16:25:15.580Z,2.70
2019-02-11T16:27:44.234Z,2.60
2019-02-11T16:30:15.877Z,2.50
2019-02-11T16:32:44.538Z,2.40
2019-02-11T16:35:14.937Z,2.40
2019-02-11T16:37:43.819Z,2.50
2019-02-11T16:40:20.920Z,2.40
2019-02-11T16:42:49.644Z,2.50
2019-02-11T16:45:18.390Z,2.40
2019-02-11T16:47:47.039Z,2.40
2019-02-11T16:50:15.770Z,2.50
2019-02-11T16:52:44.475Z,2.50
2019-02-11T16:55:13.190Z,2.40
2019-02-11T16:57:42.186Z,2.50
2019-02-11T17:00:13.441Z,2.60
2019-02-11T17:02:44.793Z,2.70
2019-02-11T17:05:13.854Z,2.70
2019-02-11T17:07:42.579Z,2.90
2019-02-11T17:10:12.766Z,3.10
2019-02-11T17:12:41.582Z,3.20
2019-02-11T17:15:12.295Z,3.20
2019-02-11T17:17:40.944Z,3.20
2019-02-11T17:20:11.599Z,3.10
2019-02-11T17:22:40.250Z,2.90
2019-02-11T17:25:10.318Z,2.90
2019-02-11T17:27:39.055Z,3.00
2019-02-11T17:30:12.850Z,3.10
2019-02-11T17:32:41.538Z,3.20
2019-02-11T17:35:10.731Z,3.20
2019-02-11T17:37:39.417Z,3.20
2019-02-11T17:40:11.843Z,3.30
2019-02-11T17:42:40.682Z,3.30
2019-02-11T17:45:12.476Z,3.30
2019-02-11T17:47:41.119Z,3.30
2019-02-11T17:50:12.717Z,3.40
2019-02-11T17:52:41.408Z,3.20
2019-02-11T17:55:12.356Z,3.30
2019-02-11T17:57:41.417Z,3.40
2019-02-11T18:00:14.835Z,3.50
2019-02-11T18:02:43.784Z,3.50
2019-02-11T18:05:12.584Z,3.40
2019-02-11T18:07:41.264Z,3.30
2019-02-11T18:10:09.935Z,3.20
2019-02-11T18:12:38.634Z,3.10
2019-02-11T18:15:10.395Z,3.10
2019-02-11T18:17:39.078Z,3.20
2019-02-11T18:20:11.297Z,3.30
2019-02-11T18:22:39.962Z,3.40
2019-02-11T18:25:09.649Z,3.40
2019-02-11T18:27:38.407Z,3.20
2019-02-11T18:30:11.205Z,3.10
2019-02-11T18:32:39.921Z,3.20
2019-02-11T18:35:11.591Z,3.30
2019-02-11T18:37:40.271Z,3.30
2019-02-11T18:40:12.107Z,3.10
2019-02-11T18:42:41.175Z,3.00
2019-02-11T18:45:12.423Z,2.90
2019-02-11T18:47:41.689Z,2.90
2019-02-11T18:50:15.395Z,2.80
2019-02-11T18:52:44.301Z,2.80
2019-02-11T18:55:20.680Z,2.80
2019-02-11T18:57:49.344Z,2.70
2019-02-11T19:00:19.936Z,2.60
2019-02-11T19:02:49.344Z,2.70
2019-02-11T19:05:18.060Z,2.70
2019-02-11T19:07:46.802Z,2.70
2019-02-11T19:10:16.852Z,2.50
2019-02-11T19:12:45.510Z,2.50
2019-02-11T19:15:18.182Z,2.60
2019-02-11T19:17:46.953Z,2.50
2019-02-11T19:20:18.756Z,2.40
2019-02-11T19:22:47.449Z,2.40
2019-02-11T19:25:16.248Z,2.50
2019-02-11T19:27:44.861Z,2.50
2019-02-11T19:30:25.681Z,2.60
2019-02-11T19:32:57.284Z,2.70
2019-02-11T19:35:26.055Z,2.80
2019-02-11T19:37:54.766Z,2.80
2019-02-11T19:40:23.699Z,2.70
2019-02-11T19:42:52.507Z,2.60
2019-02-11T19:45:22.581Z,2.80
2019-02-11T19:47:51.254Z,2.80
2019-02-11T19:50:19.946Z,2.80
2019-02-11T19:52:50.756Z,2.90
2019-02-11T19:55:20.745Z,3.00
2019-02-11T19:57:49.413Z,3.00
2019-02-11T20:00:22.956Z,3.00
2019-02-11T20:02:51.624Z,3.00
2019-02-11T20:05:20.536Z,3.10
2019-02-11T20:07:49.242Z,3.10
2019-02-11T20:10:20.386Z,3.10
2019-02-11T20:12:49.058Z,3.20
2019-02-11T20:15:19.972Z,3.30
2019-02-11T20:17:48.647Z,3.30
2019-02-11T20:20:19.095Z,3.30
2019-02-11T20:22:48.010Z,3.20
2019-02-11T20:25:16.677Z,3.20
2019-02-11T20:27:45.362Z,3.00
2019-02-11T20:30:22.298Z,3.00
2019-02-11T20:32:51.043Z,2.90
2019-02-11T20:35:19.789Z,3.40
2019-02-11T20:37:48.689Z,3.40
2019-02-11T20:40:19.760Z,3.40
2019-02-11T20:42:48.440Z,3.40
2019-02-11T20:45:25.324Z,3.40
2019-02-11T20:47:54.068Z,3.50
2019-02-11T20:50:22.867Z,3.60
2019-02-11T20:52:52.230Z,3.60
2019-02-11T20:55:20.876Z,3.40
2019-02-11T20:57:55.448Z,3.30
2019-02-11T21:00:28.596Z,3.30
2019-02-11T21:02:57.247Z,3.30
2019-02-11T21:05:26.667Z,3.30
2019-02-11T21:07:57.771Z,3.30
2019-02-11T21:10:28.516Z,3.30
2019-02-11T21:12:57.862Z,3.40
2019-02-11T21:15:26.635Z,3.50
2019-02-11T21:17:55.311Z,3.40
2019-02-11T21:20:41.541Z,3.40
2019-02-11T21:23:11.199Z,3.50
2019-02-11T21:25:39.857Z,3.50
2019-02-11T21:28:08.817Z,3.60
2019-02-11T21:30:37.497Z,3.60
2019-02-11T21:33:06.165Z,3.60
2019-02-11T21:35:34.931Z,3.60
2019-02-11T21:38:03.667Z,3.60
2019-02-11T21:40:32.429Z,3.60
2019-02-11T21:43:01.136Z,3.50
2019-02-11T21:45:29.817Z,3.50
2019-02-11T21:47:58.476Z,3.50
2019-02-11T21:50:27.227Z,3.60
2019-02-11T21:52:55.869Z,3.50
2019-02-11T21:55:25.438Z,3.50
2019-02-11T21:57:54.183Z,3.40
2019-02-11T22:00:23.465Z,3.50
2019-02-11T22:02:52.168Z,3.60
2019-02-11T22:05:20.998Z,3.70
2019-02-11T22:07:49.764Z,3.70
2019-02-11T22:10:20.246Z,3.60
2019-02-11T22:12:49.104Z,3.60
2019-02-11T22:15:17.788Z,3.70
2019-02-11T22:17:46.450Z,3.60
2019-02-11T22:20:18.467Z,3.60
2019-02-11T22:22:47.132Z,3.60
2019-02-11T22:25:15.874Z,3.60
2019-02-11T22:27:44.626Z,3.80
2019-02-11T22:30:23.899Z,3.80
2019-02-11T22:32:52.639Z,3.80
2019-02-11T22:35:21.357Z,3.70
2019-02-11T22:37:51.143Z,3.60
2019-02-11T22:40:19.855Z,3.70
2019-02-11T22:42:48.530Z,3.70
2019-02-11T22:45:25.582Z,3.60
2019-02-11T22:47:54.239Z,3.70
2019-02-11T22:50:22.948Z,3.60
2019-02-11T22:52:51.696Z,3.50
2019-02-11T22:55:20.366Z,3.50
2019-02-11T22:57:49.072Z,3.50
2019-02-11T23:00:46.163Z,3.50
2019-02-11T23:03:14.947Z,3.50
2019-02-11T23:05:43.785Z,3.50
2019-02-11T23:08:12.552Z,3.60
2019-02-11T23:10:41.218Z,3.70
2019-02-11T23:13:09.907Z,3.80
2019-02-11T23:15:38.614Z,3.90
2019-02-11T23:18:07.369Z,4.00
2019-02-11T23:20:36.023Z,4.00
2019-02-11T23:23:04.749Z,4.00
2019-02-11T23:25:33.420Z,4.00
2019-02-11T23:28:02.082Z,4.10
2019-02-11T23:30:30.800Z,4.00
2019-02-11T23:32:59.481Z,3.90
2019-02-11T23:35:28.127Z,3.90
2019-02-11T23:37:59.803Z,3.90
2019-02-11T23:40:28.481Z,3.90
2019-02-11T23:42:57.172Z,3.90
2019-02-11T23:45:25.896Z,4.00
2019-02-11T23:47:54.584Z,4.00
2019-02-11T23:50:23.268Z,3.90
2019-02-11T23:52:52.036Z,4.00
2019-02-11T23:55:20.711Z,4.10
2019-02-11T23:57:49.389Z,4.20
